sensor_id;sensor_type;location;lat;lon;timestamp;P1;durP1;ratioP1;P2;durP2;ratioP2
69256;SDS011;56376;53.356;-1.748;2023-05-07T00:01:03;3.95;;;3.47;;
69256;SDS011;56376;53.356;-1.748;2023-05-07T00:03:30;4.25;;;3.63;;
69256;SDS011;56376;53.356;-1.748;2023-05-07T00:05:56;3.80;;;3.50;;
69256;SDS011;56376;53.356;-1.748;2023-05-07T00:08:21;3.97;;;3.63;;
69256;SDS011;56376;53.356;-1.748;2023-05-07T00:10:47;4.10;;;3.72;;
69256;SDS011;56376;53.356;-1.748;2023-05-07T00:13:12;3.97;;;3.60;;
69256;SDS011;56376;53.356;-1.748;2023-05-07T00:15:38;4.38;;;3.97;;
69256;SDS011;56376;53.356;-1.748;2023-05-07T00:18:03;3.90;;;3.60;;
69256;SDS011;56376;53.356;-1.748;2023-05-07T00:20:29;4.10;;;3.70;;
69256;SDS011;56376;53.356;-1.748;2023-05-07T00:22:54;3.80;;;3.50;;
69256;SDS011;56376;53.356;-1.748;2023-05-07T00:25:20;5.13;;;3.83;;
69256;SDS011;56376;53.356;-1.748;2023-05-07T00:27:46;4.25;;;3.85;;
69256;SDS011;56376;53.356;-1.748;2023-05-07T00:30:11;4.53;;;4.13;;
69256;SDS011;56376;53.356;-1.748;2023-05-07T00:32:37;4.32;;;3.92;;
69256;SDS011;56376;53.356;-1.748;2023-05-07T00:35:04;4.65;;;4.15;;
69256;SDS011;56376;53.356;-1.748;2023-05-07T00:37:31;4.18;;;3.78;;
69256;SDS011;56376;53.356;-1.748;2023-05-07T00:39:56;4.22;;;3.83;;
69256;SDS011;56376;53.356;-1.748;2023-05-07T00:42:22;4.28;;;3.88;;
69256;SDS011;56376;53.356;-1.748;2023-05-07T00:44:49;4.68;;;4.28;;
69256;SDS011;56376;53.356;-1.748;2023-05-07T00:47:14;4.65;;;4.25;;
69256;SDS011;56376;53.356;-1.748;2023-05-07T00:49:43;5.03;;;4.40;;
69256;SDS011;56376;53.356;-1.748;2023-05-07T00:52:14;5.35;;;4.85;;
69256;SDS011;56376;53.356;-1.748;2023-05-07T00:54:41;6.05;;;5.45;;
69256;SDS011;56376;53.356;-1.748;2023-05-07T00:57:07;7.03;;;6.32;;
69256;SDS011;56376;53.356;-1.748;2023-05-07T00:59:34;6.63;;;6.03;;
69256;SDS011;56376;53.356;-1.748;2023-05-07T01:02:00;6.63;;;6.00;;
69256;SDS011;56376;53.356;-1.748;2023-05-07T01:04:26;6.43;;;5.72;;
69256;SDS011;56376;53.356;-1.748;2023-05-07T01:06:52;6.85;;;5.68;;
69256;SDS011;56376;53.356;-1.748;2023-05-07T01:09:21;5.72;;;5.20;;
69256;SDS011;56376;53.356;-1.748;2023-05-07T01:11:47;5.35;;;4.85;;
69256;SDS011;56376;53.356;-1.748;2023-05-07T01:14:14;5.65;;;5.13;;
69256;SDS011;56376;53.356;-1.748;2023-05-07T01:16:39;5.43;;;4.93;;
69256;SDS011;56376;53.356;-1.748;2023-05-07T01:19:07;5.78;;;5.28;;
69256;SDS011;56376;53.356;-1.748;2023-05-07T01:21:35;5.70;;;5.20;;
69256;SDS011;56376;53.356;-1.748;2023-05-07T01:24:02;5.72;;;4.70;;
69256;SDS011;56376;53.356;-1.748;2023-05-07T01:26:30;6.00;;;5.47;;
69256;SDS011;56376;53.356;-1.748;2023-05-07T01:28:55;6.80;;;5.95;;
69256;SDS011;56376;53.356;-1.748;2023-05-07T01:31:21;6.18;;;5.57;;
69256;SDS011;56376;53.356;-1.748;2023-05-07T01:33:48;5.47;;;4.97;;
69256;SDS011;56376;53.356;-1.748;2023-05-07T01:36:17;5.80;;;5.20;;
69256;SDS011;56376;53.356;-1.748;2023-05-07T01:38:43;5.50;;;4.95;;
69256;SDS011;56376;53.356;-1.748;2023-05-07T01:41:11;6.18;;;5.57;;
69256;SDS011;56376;53.356;-1.748;2023-05-07T01:43:37;6.30;;;5.70;;
69256;SDS011;56376;53.356;-1.748;2023-05-07T01:46:02;6.70;;;6.00;;
69256;SDS011;56376;53.356;-1.748;2023-05-07T01:48:28;7.13;;;6.45;;
69256;SDS011;56376;53.356;-1.748;2023-05-07T01:50:54;6.20;;;5.60;;
69256;SDS011;56376;53.356;-1.748;2023-05-07T01:53:20;5.90;;;5.30;;
69256;SDS011;56376;53.356;-1.748;2023-05-07T01:55:45;6.35;;;5.07;;
69256;SDS011;56376;53.356;-1.748;2023-05-07T01:58:11;5.63;;;5.13;;
69256;SDS011;56376;53.356;-1.748;2023-05-07T02:00:36;4.75;;;4.35;;
69256;SDS011;56376;53.356;-1.748;2023-05-07T02:03:02;5.75;;;5.25;;
69256;SDS011;56376;53.356;-1.748;2023-05-07T02:05:27;5.75;;;5.25;;
69256;SDS011;56376;53.356;-1.748;2023-05-07T02:07:52;5.63;;;5.13;;
69256;SDS011;56376;53.356;-1.748;2023-05-07T02:10:18;6.45;;;5.85;;
69256;SDS011;56376;53.356;-1.748;2023-05-07T02:12:43;5.75;;;5.25;;
69256;SDS011;56376;53.356;-1.748;2023-05-07T02:15:09;7.75;;;6.03;;
69256;SDS011;56376;53.356;-1.748;2023-05-07T02:17:35;6.10;;;5.53;;
69256;SDS011;56376;53.356;-1.748;2023-05-07T02:20:02;7.93;;;6.57;;
69256;SDS011;56376;53.356;-1.748;2023-05-07T02:22:28;8.30;;;7.40;;
69256;SDS011;56376;53.356;-1.748;2023-05-07T02:24:54;7.15;;;6.45;;
69256;SDS011;56376;53.356;-1.748;2023-05-07T02:27:19;6.60;;;5.97;;
69256;SDS011;56376;53.356;-1.748;2023-05-07T02:29:44;7.65;;;6.85;;
69256;SDS011;56376;53.356;-1.748;2023-05-07T02:32:10;8.38;;;7.43;;
69256;SDS011;56376;53.356;-1.748;2023-05-07T02:34:35;8.45;;;7.65;;
69256;SDS011;56376;53.356;-1.748;2023-05-07T02:37:01;9.38;;;8.32;;
69256;SDS011;56376;53.356;-1.748;2023-05-07T02:39:26;9.07;;;8.18;;
69256;SDS011;56376;53.356;-1.748;2023-05-07T02:41:51;9.45;;;8.43;;
69256;SDS011;56376;53.356;-1.748;2023-05-07T02:44:17;10.25;;;9.25;;
69256;SDS011;56376;53.356;-1.748;2023-05-07T02:46:42;9.25;;;8.13;;
69256;SDS011;56376;53.356;-1.748;2023-05-07T02:49:07;11.48;;;9.25;;
69256;SDS011;56376;53.356;-1.748;2023-05-07T02:51:33;10.98;;;9.63;;
69256;SDS011;56376;53.356;-1.748;2023-05-07T02:53:58;8.50;;;7.60;;
69256;SDS011;56376;53.356;-1.748;2023-05-07T02:56:25;10.65;;;9.50;;
69256;SDS011;56376;53.356;-1.748;2023-05-07T02:58:51;9.02;;;8.10;;
69256;SDS011;56376;53.356;-1.748;2023-05-07T03:01:16;9.38;;;8.38;;
69256;SDS011;56376;53.356;-1.748;2023-05-07T03:03:42;10.25;;;8.63;;
69256;SDS011;56376;53.356;-1.748;2023-05-07T03:06:07;11.40;;;8.40;;
69256;SDS011;56376;53.356;-1.748;2023-05-07T03:08:32;10.73;;;9.63;;
69256;SDS011;56376;53.356;-1.748;2023-05-07T03:10:58;10.88;;;9.43;;
69256;SDS011;56376;53.356;-1.748;2023-05-07T03:13:24;10.43;;;9.27;;
69256;SDS011;56376;53.356;-1.748;2023-05-07T03:15:49;11.27;;;10.07;;
69256;SDS011;56376;53.356;-1.748;2023-05-07T03:18:15;9.60;;;8.60;;
69256;SDS011;56376;53.356;-1.748;2023-05-07T03:20:40;9.27;;;8.02;;
69256;SDS011;56376;53.356;-1.748;2023-05-07T03:23:05;8.93;;;8.02;;
69256;SDS011;56376;53.356;-1.748;2023-05-07T03:25:31;8.02;;;7.10;;
69256;SDS011;56376;53.356;-1.748;2023-05-07T03:27:57;8.68;;;7.32;;
69256;SDS011;56376;53.356;-1.748;2023-05-07T03:30:23;7.63;;;6.60;;
69256;SDS011;56376;53.356;-1.748;2023-05-07T03:32:48;7.43;;;6.72;;
69256;SDS011;56376;53.356;-1.748;2023-05-07T03:35:13;6.80;;;6.10;;
69256;SDS011;56376;53.356;-1.748;2023-05-07T03:37:39;5.72;;;5.22;;
69256;SDS011;56376;53.356;-1.748;2023-05-07T03:40:05;6.13;;;5.53;;
69256;SDS011;56376;53.356;-1.748;2023-05-07T03:42:32;6.88;;;6.03;;
69256;SDS011;56376;53.356;-1.748;2023-05-07T03:44:57;7.00;;;6.30;;
69256;SDS011;56376;53.356;-1.748;2023-05-07T03:47:23;7.25;;;6.40;;
69256;SDS011;56376;53.356;-1.748;2023-05-07T03:49:48;6.95;;;6.25;;
69256;SDS011;56376;53.356;-1.748;2023-05-07T03:52:15;6.93;;;6.22;;
69256;SDS011;56376;53.356;-1.748;2023-05-07T03:54:40;5.93;;;5.35;;
69256;SDS011;56376;53.356;-1.748;2023-05-07T03:57:06;6.07;;;5.38;;
69256;SDS011;56376;53.356;-1.748;2023-05-07T03:59:31;5.90;;;5.30;;
69256;SDS011;56376;53.356;-1.748;2023-05-07T04:01:56;4.72;;;4.32;;
69256;SDS011;56376;53.356;-1.748;2023-05-07T04:04:22;4.20;;;3.80;;
69256;SDS011;56376;53.356;-1.748;2023-05-07T04:06:47;4.30;;;3.53;;
69256;SDS011;56376;53.356;-1.748;2023-05-07T04:09:13;3.45;;;3.15;;
69256;SDS011;56376;53.356;-1.748;2023-05-07T04:11:38;3.33;;;3.03;;
69256;SDS011;56376;53.356;-1.748;2023-05-07T04:14:05;3.38;;;3.03;;
69256;SDS011;56376;53.356;-1.748;2023-05-07T04:16:30;3.15;;;2.85;;
69256;SDS011;56376;53.356;-1.748;2023-05-07T04:18:56;2.60;;;2.40;;
69256;SDS011;56376;53.356;-1.748;2023-05-07T04:21:21;2.90;;;2.60;;
69256;SDS011;56376;53.356;-1.748;2023-05-07T04:23:47;2.97;;;2.72;;
69256;SDS011;56376;53.356;-1.748;2023-05-07T04:26:13;3.05;;;2.75;;
69256;SDS011;56376;53.356;-1.748;2023-05-07T04:28:39;3.53;;;3.22;;
69256;SDS011;56376;53.356;-1.748;2023-05-07T04:31:05;4.07;;;3.70;;
69256;SDS011;56376;53.356;-1.748;2023-05-07T04:33:31;3.60;;;3.30;;
69256;SDS011;56376;53.356;-1.748;2023-05-07T04:35:58;4.07;;;3.10;;
69256;SDS011;56376;53.356;-1.748;2023-05-07T04:38:27;3.10;;;2.80;;
69256;SDS011;56376;53.356;-1.748;2023-05-07T04:40:54;3.42;;;3.00;;
69256;SDS011;56376;53.356;-1.748;2023-05-07T04:43:19;3.28;;;2.63;;
69256;SDS011;56376;53.356;-1.748;2023-05-07T04:45:45;3.28;;;2.97;;
69256;SDS011;56376;53.356;-1.748;2023-05-07T04:48:11;3.25;;;2.95;;
69256;SDS011;56376;53.356;-1.748;2023-05-07T04:50:36;3.60;;;3.30;;
69256;SDS011;56376;53.356;-1.748;2023-05-07T04:53:01;4.25;;;3.78;;
69256;SDS011;56376;53.356;-1.748;2023-05-07T04:55:28;4.32;;;3.72;;
69256;SDS011;56376;53.356;-1.748;2023-05-07T04:57:53;5.30;;;4.53;;
69256;SDS011;56376;53.356;-1.748;2023-05-07T05:00:18;5.43;;;4.93;;
69256;SDS011;56376;53.356;-1.748;2023-05-07T05:02:44;6.38;;;5.70;;
69256;SDS011;56376;53.356;-1.748;2023-05-07T05:05:10;7.32;;;6.28;;
69256;SDS011;56376;53.356;-1.748;2023-05-07T05:07:36;7.00;;;6.30;;
69256;SDS011;56376;53.356;-1.748;2023-05-07T05:10:02;6.40;;;5.80;;
69256;SDS011;56376;53.356;-1.748;2023-05-07T05:12:28;7.78;;;6.97;;
69256;SDS011;56376;53.356;-1.748;2023-05-07T05:14:54;7.70;;;6.95;;
69256;SDS011;56376;53.356;-1.748;2023-05-07T05:17:19;7.18;;;6.47;;
69256;SDS011;56376;53.356;-1.748;2023-05-07T05:19:45;9.43;;;8.23;;
69256;SDS011;56376;53.356;-1.748;2023-05-07T05:22:10;8.90;;;7.47;;
69256;SDS011;56376;53.356;-1.748;2023-05-07T05:24:36;8.90;;;7.70;;
69256;SDS011;56376;53.356;-1.748;2023-05-07T05:27:01;8.20;;;7.35;;
69256;SDS011;56376;53.356;-1.748;2023-05-07T05:29:27;8.00;;;7.20;;
69256;SDS011;56376;53.356;-1.748;2023-05-07T05:31:52;8.50;;;7.70;;
69256;SDS011;56376;53.356;-1.748;2023-05-07T05:34:17;10.50;;;8.77;;
69256;SDS011;56376;53.356;-1.748;2023-05-07T05:36:44;10.80;;;9.50;;
69256;SDS011;56376;53.356;-1.748;2023-05-07T05:39:10;8.73;;;7.82;;
69256;SDS011;56376;53.356;-1.748;2023-05-07T05:41:35;8.00;;;7.30;;
69256;SDS011;56376;53.356;-1.748;2023-05-07T05:44:00;7.80;;;6.82;;
69256;SDS011;56376;53.356;-1.748;2023-05-07T05:46:26;8.00;;;7.18;;
69256;SDS011;56376;53.356;-1.748;2023-05-07T05:48:51;7.30;;;6.60;;
69256;SDS011;56376;53.356;-1.748;2023-05-07T05:51:16;7.18;;;6.50;;
69256;SDS011;56376;53.356;-1.748;2023-05-07T05:53:42;6.88;;;6.25;;
69256;SDS011;56376;53.356;-1.748;2023-05-07T05:56:07;7.95;;;6.60;;
69256;SDS011;56376;53.356;-1.748;2023-05-07T05:58:33;6.65;;;5.80;;
69256;SDS011;56376;53.356;-1.748;2023-05-07T06:00:58;7.10;;;6.30;;
69256;SDS011;56376;53.356;-1.748;2023-05-07T06:03:24;8.05;;;6.53;;
69256;SDS011;56376;53.356;-1.748;2023-05-07T06:05:50;7.43;;;6.40;;
69256;SDS011;56376;53.356;-1.748;2023-05-07T06:08:15;6.95;;;6.35;;
69256;SDS011;56376;53.356;-1.748;2023-05-07T06:10:40;7.32;;;6.63;;
69256;SDS011;56376;53.356;-1.748;2023-05-07T06:13:06;6.82;;;6.18;;
69256;SDS011;56376;53.356;-1.748;2023-05-07T06:15:31;6.97;;;6.35;;
69256;SDS011;56376;53.356;-1.748;2023-05-07T06:17:57;5.97;;;5.38;;
69256;SDS011;56376;53.356;-1.748;2023-05-07T06:20:22;5.88;;;5.05;;
69256;SDS011;56376;53.356;-1.748;2023-05-07T06:22:48;5.47;;;4.97;;
69256;SDS011;56376;53.356;-1.748;2023-05-07T06:25:13;5.57;;;4.60;;
69256;SDS011;56376;53.356;-1.748;2023-05-07T06:27:39;6.20;;;5.60;;
69256;SDS011;56376;53.356;-1.748;2023-05-07T06:30:05;6.30;;;5.55;;
69256;SDS011;56376;53.356;-1.748;2023-05-07T06:32:31;8.18;;;6.82;;
69256;SDS011;56376;53.356;-1.748;2023-05-07T06:34:56;8.75;;;7.35;;
69256;SDS011;56376;53.356;-1.748;2023-05-07T06:37:22;8.70;;;7.80;;
69256;SDS011;56376;53.356;-1.748;2023-05-07T06:39:47;13.45;;;10.85;;
69256;SDS011;56376;53.356;-1.748;2023-05-07T06:42:13;14.48;;;10.95;;
69256;SDS011;56376;53.356;-1.748;2023-05-07T06:44:38;13.52;;;12.07;;
69256;SDS011;56376;53.356;-1.748;2023-05-07T06:47:03;11.48;;;10.30;;
69256;SDS011;56376;53.356;-1.748;2023-05-07T06:49:30;12.05;;;9.85;;
69256;SDS011;56376;53.356;-1.748;2023-05-07T06:51:56;12.35;;;11.00;;
69256;SDS011;56376;53.356;-1.748;2023-05-07T06:54:22;13.68;;;12.07;;
69256;SDS011;56376;53.356;-1.748;2023-05-07T06:56:47;13.05;;;11.70;;
69256;SDS011;56376;53.356;-1.748;2023-05-07T06:59:13;11.40;;;10.30;;
69256;SDS011;56376;53.356;-1.748;2023-05-07T07:01:38;13.00;;;11.00;;
69256;SDS011;56376;53.356;-1.748;2023-05-07T07:04:04;13.23;;;11.43;;
69256;SDS011;56376;53.356;-1.748;2023-05-07T07:06:29;14.18;;;12.10;;
69256;SDS011;56376;53.356;-1.748;2023-05-07T07:08:56;12.48;;;10.70;;
69256;SDS011;56376;53.356;-1.748;2023-05-07T07:11:22;12.63;;;10.95;;
69256;SDS011;56376;53.356;-1.748;2023-05-07T07:13:47;11.55;;;9.25;;
69256;SDS011;56376;53.356;-1.748;2023-05-07T07:16:13;12.20;;;10.13;;
69256;SDS011;56376;53.356;-1.748;2023-05-07T07:18:38;14.43;;;12.40;;
69256;SDS011;56376;53.356;-1.748;2023-05-07T07:21:04;12.90;;;10.68;;
69256;SDS011;56376;53.356;-1.748;2023-05-07T07:23:30;9.88;;;8.88;;
69256;SDS011;56376;53.356;-1.748;2023-05-07T07:25:55;11.88;;;9.80;;
69256;SDS011;56376;53.356;-1.748;2023-05-07T07:28:21;10.68;;;9.23;;
69256;SDS011;56376;53.356;-1.748;2023-05-07T07:30:46;11.23;;;9.43;;
69256;SDS011;56376;53.356;-1.748;2023-05-07T07:33:12;12.15;;;10.82;;
69256;SDS011;56376;53.356;-1.748;2023-05-07T07:35:37;10.38;;;9.27;;
69256;SDS011;56376;53.356;-1.748;2023-05-07T07:38:03;11.02;;;9.93;;
69256;SDS011;56376;53.356;-1.748;2023-05-07T07:40:28;12.07;;;10.23;;
69256;SDS011;56376;53.356;-1.748;2023-05-07T07:42:54;13.32;;;11.05;;
69256;SDS011;56376;53.356;-1.748;2023-05-07T07:45:20;14.40;;;11.27;;
69256;SDS011;56376;53.356;-1.748;2023-05-07T07:47:45;18.58;;;15.10;;
69256;SDS011;56376;53.356;-1.748;2023-05-07T07:50:11;18.13;;;15.15;;
69256;SDS011;56376;53.356;-1.748;2023-05-07T07:52:37;17.98;;;15.35;;
69256;SDS011;56376;53.356;-1.748;2023-05-07T07:55:02;18.77;;;14.07;;
69256;SDS011;56376;53.356;-1.748;2023-05-07T07:57:29;18.85;;;14.60;;
69256;SDS011;56376;53.356;-1.748;2023-05-07T07:59:55;16.40;;;13.27;;
69256;SDS011;56376;53.356;-1.748;2023-05-07T08:02:20;16.85;;;14.13;;
69256;SDS011;56376;53.356;-1.748;2023-05-07T08:04:45;22.60;;;14.80;;
69256;SDS011;56376;53.356;-1.748;2023-05-07T08:07:11;18.75;;;14.50;;
69256;SDS011;56376;53.356;-1.748;2023-05-07T08:09:37;18.27;;;14.40;;
69256;SDS011;56376;53.356;-1.748;2023-05-07T08:12:03;20.58;;;13.45;;
69256;SDS011;56376;53.356;-1.748;2023-05-07T08:14:29;18.27;;;14.50;;
69256;SDS011;56376;53.356;-1.748;2023-05-07T08:16:55;19.92;;;15.57;;
69256;SDS011;56376;53.356;-1.748;2023-05-07T08:19:20;19.23;;;15.93;;
69256;SDS011;56376;53.356;-1.748;2023-05-07T08:21:46;16.92;;;13.23;;
69256;SDS011;56376;53.356;-1.748;2023-05-07T08:24:13;24.10;;;16.02;;
69256;SDS011;56376;53.356;-1.748;2023-05-07T08:26:39;24.95;;;15.07;;
69256;SDS011;56376;53.356;-1.748;2023-05-07T08:29:05;20.80;;;14.68;;
69256;SDS011;56376;53.356;-1.748;2023-05-07T08:31:31;19.85;;;14.65;;
69256;SDS011;56376;53.356;-1.748;2023-05-07T08:33:57;17.02;;;13.00;;
69256;SDS011;56376;53.356;-1.748;2023-05-07T08:36:23;14.70;;;11.05;;
69256;SDS011;56376;53.356;-1.748;2023-05-07T08:38:48;15.25;;;11.07;;
69256;SDS011;56376;53.356;-1.748;2023-05-07T08:41:14;14.50;;;9.88;;
69256;SDS011;56376;53.356;-1.748;2023-05-07T08:43:41;18.00;;;12.05;;
69256;SDS011;56376;53.356;-1.748;2023-05-07T08:46:06;14.75;;;11.07;;
69256;SDS011;56376;53.356;-1.748;2023-05-07T08:48:35;12.38;;;9.73;;
69256;SDS011;56376;53.356;-1.748;2023-05-07T08:51:01;13.30;;;9.93;;
69256;SDS011;56376;53.356;-1.748;2023-05-07T08:53:26;11.43;;;9.52;;
69256;SDS011;56376;53.356;-1.748;2023-05-07T08:55:52;11.75;;;8.10;;
69256;SDS011;56376;53.356;-1.748;2023-05-07T08:58:18;8.75;;;7.65;;
69256;SDS011;56376;53.356;-1.748;2023-05-07T09:00:43;7.45;;;6.65;;
69256;SDS011;56376;53.356;-1.748;2023-05-07T09:03:09;5.80;;;5.20;;
69256;SDS011;56376;53.356;-1.748;2023-05-07T09:05:37;8.40;;;5.47;;
69256;SDS011;56376;53.356;-1.748;2023-05-07T09:08:03;9.35;;;5.50;;
69256;SDS011;56376;53.356;-1.748;2023-05-07T09:10:32;10.82;;;6.80;;
69256;SDS011;56376;53.356;-1.748;2023-05-07T09:12:58;9.77;;;6.72;;
69256;SDS011;56376;53.356;-1.748;2023-05-07T09:15:24;12.18;;;8.05;;
69256;SDS011;56376;53.356;-1.748;2023-05-07T09:17:51;12.40;;;8.15;;
69256;SDS011;56376;53.356;-1.748;2023-05-07T09:20:16;11.68;;;7.60;;
69256;SDS011;56376;53.356;-1.748;2023-05-07T09:22:42;8.18;;;6.82;;
69256;SDS011;56376;53.356;-1.748;2023-05-07T09:25:09;12.05;;;8.23;;
69256;SDS011;56376;53.356;-1.748;2023-05-07T09:27:34;9.65;;;6.70;;
69256;SDS011;56376;53.356;-1.748;2023-05-07T09:30:02;9.10;;;7.07;;
69256;SDS011;56376;53.356;-1.748;2023-05-07T09:32:29;12.82;;;8.63;;
69256;SDS011;56376;53.356;-1.748;2023-05-07T09:34:56;7.07;;;6.07;;
69256;SDS011;56376;53.356;-1.748;2023-05-07T09:37:21;6.93;;;5.40;;
69256;SDS011;56376;53.356;-1.748;2023-05-07T09:39:47;10.57;;;7.30;;
69256;SDS011;56376;53.356;-1.748;2023-05-07T09:42:15;7.07;;;5.57;;
69256;SDS011;56376;53.356;-1.748;2023-05-07T09:44:41;7.20;;;6.00;;
69256;SDS011;56376;53.356;-1.748;2023-05-07T09:47:08;6.95;;;5.22;;
69256;SDS011;56376;53.356;-1.748;2023-05-07T09:49:34;8.13;;;6.00;;
69256;SDS011;56376;53.356;-1.748;2023-05-07T09:52:02;8.32;;;5.22;;
69256;SDS011;56376;53.356;-1.748;2023-05-07T09:54:31;6.95;;;4.65;;
69256;SDS011;56376;53.356;-1.748;2023-05-07T09:56:58;8.30;;;5.68;;
69256;SDS011;56376;53.356;-1.748;2023-05-07T09:59:24;9.40;;;6.13;;
69256;SDS011;56376;53.356;-1.748;2023-05-07T10:01:52;6.85;;;5.60;;
69256;SDS011;56376;53.356;-1.748;2023-05-07T10:04:21;5.15;;;4.65;;
69256;SDS011;56376;53.356;-1.748;2023-05-07T10:06:47;8.20;;;6.13;;
69256;SDS011;56376;53.356;-1.748;2023-05-07T10:09:13;8.57;;;4.90;;
69256;SDS011;56376;53.356;-1.748;2023-05-07T10:11:40;5.45;;;4.82;;
69256;SDS011;56376;53.356;-1.748;2023-05-07T10:14:06;7.50;;;5.05;;
69256;SDS011;56376;53.356;-1.748;2023-05-07T10:16:32;6.25;;;4.65;;
69256;SDS011;56376;53.356;-1.748;2023-05-07T10:19:02;5.45;;;4.20;;
69256;SDS011;56376;53.356;-1.748;2023-05-07T10:21:31;7.95;;;3.95;;
69256;SDS011;56376;53.356;-1.748;2023-05-07T10:24:12;4.53;;;3.28;;
69256;SDS011;56376;53.356;-1.748;2023-05-07T10:26:42;7.80;;;4.95;;
69256;SDS011;56376;53.356;-1.748;2023-05-07T10:32:39;3.53;;;3.15;;
69256;SDS011;56376;53.356;-1.748;2023-05-07T10:35:10;5.53;;;3.80;;
69256;SDS011;56376;53.356;-1.748;2023-05-07T10:37:49;5.70;;;4.00;;
69256;SDS011;56376;53.356;-1.748;2023-05-07T10:40:15;7.35;;;3.97;;
69256;SDS011;56376;53.356;-1.748;2023-05-07T10:42:56;7.65;;;4.18;;
69256;SDS011;56376;53.356;-1.748;2023-05-07T10:45:26;4.72;;;3.55;;
69256;SDS011;56376;53.356;-1.748;2023-05-07T10:50:33;6.47;;;3.90;;
69256;SDS011;56376;53.356;-1.748;2023-05-07T10:55:49;5.07;;;3.00;;
69256;SDS011;56376;53.356;-1.748;2023-05-07T10:58:23;4.95;;;2.90;;
69256;SDS011;56376;53.356;-1.748;2023-05-07T11:00:54;3.92;;;2.70;;
69256;SDS011;56376;53.356;-1.748;2023-05-07T11:03:21;3.25;;;2.20;;
69256;SDS011;56376;53.356;-1.748;2023-05-07T11:05:47;3.88;;;2.25;;
69256;SDS011;56376;53.356;-1.748;2023-05-07T11:11:18;6.53;;;3.35;;
69256;SDS011;56376;53.356;-1.748;2023-05-07T11:13:45;7.95;;;3.42;;
69256;SDS011;56376;53.356;-1.748;2023-05-07T11:16:19;8.43;;;3.58;;
69256;SDS011;56376;53.356;-1.748;2023-05-07T11:18:52;6.53;;;2.53;;
69256;SDS011;56376;53.356;-1.748;2023-05-07T11:21:35;7.95;;;3.05;;
69256;SDS011;56376;53.356;-1.748;2023-05-07T11:24:02;4.13;;;2.92;;
69256;SDS011;56376;53.356;-1.748;2023-05-07T11:26:28;4.20;;;2.40;;
69256;SDS011;56376;53.356;-1.748;2023-05-07T11:29:10;3.85;;;2.33;;
69256;SDS011;56376;53.356;-1.748;2023-05-07T11:31:37;3.78;;;2.33;;
69256;SDS011;56376;53.356;-1.748;2023-05-07T11:34:03;3.05;;;2.05;;
69256;SDS011;56376;53.356;-1.748;2023-05-07T11:36:30;2.53;;;2.00;;
69256;SDS011;56376;53.356;-1.748;2023-05-07T11:38:57;4.32;;;2.25;;
69256;SDS011;56376;53.356;-1.748;2023-05-07T11:41:22;3.20;;;1.95;;
69256;SDS011;56376;53.356;-1.748;2023-05-07T11:43:54;2.78;;;2.00;;
69256;SDS011;56376;53.356;-1.748;2023-05-07T11:46:21;7.82;;;2.85;;
69256;SDS011;56376;53.356;-1.748;2023-05-07T11:48:46;4.70;;;2.15;;
69256;SDS011;56376;53.356;-1.748;2023-05-07T11:51:12;6.15;;;2.70;;
69256;SDS011;56376;53.356;-1.748;2023-05-07T11:53:42;3.97;;;2.50;;
69256;SDS011;56376;53.356;-1.748;2023-05-07T11:56:08;5.70;;;2.80;;
69256;SDS011;56376;53.356;-1.748;2023-05-07T11:58:35;4.57;;;2.30;;
69256;SDS011;56376;53.356;-1.748;2023-05-07T12:01:01;6.10;;;3.38;;
69256;SDS011;56376;53.356;-1.748;2023-05-07T12:03:26;2.80;;;1.92;;
69256;SDS011;56376;53.356;-1.748;2023-05-07T12:05:52;2.88;;;2.00;;
69256;SDS011;56376;53.356;-1.748;2023-05-07T12:08:18;4.65;;;2.13;;
69256;SDS011;56376;53.356;-1.748;2023-05-07T12:10:45;3.75;;;2.00;;
69256;SDS011;56376;53.356;-1.748;2023-05-07T12:13:14;2.83;;;1.70;;
69256;SDS011;56376;53.356;-1.748;2023-05-07T12:15:42;3.20;;;1.90;;
69256;SDS011;56376;53.356;-1.748;2023-05-07T12:18:08;5.13;;;3.08;;
69256;SDS011;56376;53.356;-1.748;2023-05-07T12:20:35;4.93;;;2.47;;
69256;SDS011;56376;53.356;-1.748;2023-05-07T12:23:01;8.18;;;2.83;;
69256;SDS011;56376;53.356;-1.748;2023-05-07T12:25:29;4.88;;;2.50;;
69256;SDS011;56376;53.356;-1.748;2023-05-07T12:28:02;3.92;;;2.40;;
69256;SDS011;56376;53.356;-1.748;2023-05-07T12:30:30;5.65;;;2.67;;
69256;SDS011;56376;53.356;-1.748;2023-05-07T12:32:57;4.43;;;2.67;;
69256;SDS011;56376;53.356;-1.748;2023-05-07T12:35:26;3.38;;;1.95;;
69256;SDS011;56376;53.356;-1.748;2023-05-07T12:37:56;2.80;;;1.95;;
69256;SDS011;56376;53.356;-1.748;2023-05-07T12:40:24;4.30;;;1.90;;
69256;SDS011;56376;53.356;-1.748;2023-05-07T12:43:00;2.75;;;1.70;;
69256;SDS011;56376;53.356;-1.748;2023-05-07T12:45:25;3.47;;;2.17;;
69256;SDS011;56376;53.356;-1.748;2023-05-07T12:47:51;5.45;;;2.20;;
69256;SDS011;56376;53.356;-1.748;2023-05-07T12:50:17;3.13;;;1.70;;
69256;SDS011;56376;53.356;-1.748;2023-05-07T12:52:45;3.88;;;2.03;;
69256;SDS011;56376;53.356;-1.748;2023-05-07T12:55:13;2.05;;;1.65;;
69256;SDS011;56376;53.356;-1.748;2023-05-07T12:57:45;4.30;;;2.20;;
69256;SDS011;56376;53.356;-1.748;2023-05-07T13:00:13;3.00;;;1.70;;
69256;SDS011;56376;53.356;-1.748;2023-05-07T13:02:39;3.78;;;1.90;;
69256;SDS011;56376;53.356;-1.748;2023-05-07T13:05:06;3.47;;;2.50;;
69256;SDS011;56376;53.356;-1.748;2023-05-07T13:07:33;3.10;;;1.83;;
69256;SDS011;56376;53.356;-1.748;2023-05-07T13:09:59;4.28;;;2.42;;
69256;SDS011;56376;53.356;-1.748;2023-05-07T13:12:24;5.47;;;2.65;;
69256;SDS011;56376;53.356;-1.748;2023-05-07T13:14:50;2.90;;;1.80;;
69256;SDS011;56376;53.356;-1.748;2023-05-07T13:17:15;2.58;;;2.13;;
69256;SDS011;56376;53.356;-1.748;2023-05-07T13:19:40;4.53;;;2.50;;
69256;SDS011;56376;53.356;-1.748;2023-05-07T13:22:06;7.55;;;2.28;;
69256;SDS011;56376;53.356;-1.748;2023-05-07T13:24:31;5.47;;;2.28;;
69256;SDS011;56376;53.356;-1.748;2023-05-07T13:26:56;4.90;;;2.28;;
69256;SDS011;56376;53.356;-1.748;2023-05-07T13:29:22;3.75;;;2.00;;
69256;SDS011;56376;53.356;-1.748;2023-05-07T13:31:54;4.22;;;1.95;;
69256;SDS011;56376;53.356;-1.748;2023-05-07T13:34:19;2.88;;;1.80;;
69256;SDS011;56376;53.356;-1.748;2023-05-07T13:36:45;3.55;;;1.80;;
69256;SDS011;56376;53.356;-1.748;2023-05-07T13:39:10;3.10;;;2.20;;
69256;SDS011;56376;53.356;-1.748;2023-05-07T13:41:36;1.98;;;1.58;;
69256;SDS011;56376;53.356;-1.748;2023-05-07T13:44:01;2.20;;;1.70;;
69256;SDS011;56376;53.356;-1.748;2023-05-07T13:46:26;2.65;;;1.75;;
69256;SDS011;56376;53.356;-1.748;2023-05-07T13:48:52;2.60;;;1.65;;
69256;SDS011;56376;53.356;-1.748;2023-05-07T13:51:17;4.25;;;2.25;;
69256;SDS011;56376;53.356;-1.748;2023-05-07T13:53:43;4.03;;;2.08;;
69256;SDS011;56376;53.356;-1.748;2023-05-07T13:56:08;2.97;;;2.00;;
69256;SDS011;56376;53.356;-1.748;2023-05-07T13:58:34;5.20;;;2.65;;
69256;SDS011;56376;53.356;-1.748;2023-05-07T14:01:01;3.25;;;2.10;;
69256;SDS011;56376;53.356;-1.748;2023-05-07T14:03:26;3.95;;;2.13;;
69256;SDS011;56376;53.356;-1.748;2023-05-07T14:05:52;3.65;;;2.17;;
69256;SDS011;56376;53.356;-1.748;2023-05-07T14:08:17;5.88;;;2.10;;
69256;SDS011;56376;53.356;-1.748;2023-05-07T14:10:44;2.45;;;1.85;;
69256;SDS011;56376;53.356;-1.748;2023-05-07T14:13:11;3.30;;;2.20;;
69256;SDS011;56376;53.356;-1.748;2023-05-07T14:15:36;2.03;;;1.42;;
69256;SDS011;56376;53.356;-1.748;2023-05-07T14:18:02;3.38;;;2.40;;
69256;SDS011;56376;53.356;-1.748;2023-05-07T14:20:28;5.00;;;2.35;;
69256;SDS011;56376;53.356;-1.748;2023-05-07T14:22:53;4.50;;;2.55;;
69256;SDS011;56376;53.356;-1.748;2023-05-07T14:25:18;3.03;;;2.22;;
69256;SDS011;56376;53.356;-1.748;2023-05-07T14:27:44;3.70;;;2.35;;
69256;SDS011;56376;53.356;-1.748;2023-05-07T14:30:09;3.08;;;2.30;;
69256;SDS011;56376;53.356;-1.748;2023-05-07T14:32:35;3.22;;;2.55;;
69256;SDS011;56376;53.356;-1.748;2023-05-07T14:35:01;2.97;;;2.30;;
69256;SDS011;56376;53.356;-1.748;2023-05-07T14:37:26;3.75;;;2.03;;